sensor_id;sensor_type;location;lat;lon;timestamp;temperature;humidity
9658;DHT22;4867;48.112;11.622;2023-09-07T00:01:01;15.10;99.90
9658;DHT22;4867;48.112;11.622;2023-09-07T00:03:31;15.10;99.90
9658;DHT22;4867;48.112;11.622;2023-09-07T00:05:58;15.00;99.90
9658;DHT22;4867;48.112;11.622;2023-09-07T00:08:25;15.00;99.90
9658;DHT22;4867;48.112;11.622;2023-09-07T00:10:53;14.90;99.90
9658;DHT22;4867;48.112;11.622;2023-09-07T00:13:20;14.90;99.90
9658;DHT22;4867;48.112;11.622;2023-09-07T00:15:47;14.90;99.90
9658;DHT22;4867;48.112;11.622;2023-09-07T00:18:14;14.90;99.90
9658;DHT22;4867;48.112;11.622;2023-09-07T00:20:46;14.90;99.90
9658;DHT22;4867;48.112;11.622;2023-09-07T00:23:13;14.90;99.90
9658;DHT22;4867;48.112;11.622;2023-09-07T00:25:40;14.90;99.90
9658;DHT22;4867;48.112;11.622;2023-09-07T00:28:07;14.90;99.90
9658;DHT22;4867;48.112;11.622;2023-09-07T00:30:34;14.90;99.90
9658;DHT22;4867;48.112;11.622;2023-09-07T00:33:02;14.80;99.90
9658;DHT22;4867;48.112;11.622;2023-09-07T00:35:29;14.90;99.90
9658;DHT22;4867;48.112;11.622;2023-09-07T00:37:56;14.80;99.90
9658;DHT22;4867;48.112;11.622;2023-09-07T00:40:24;14.70;99.90
9658;DHT22;4867;48.112;11.622;2023-09-07T00:42:53;14.80;99.90
9658;DHT22;4867;48.112;11.622;2023-09-07T00:45:21;14.80;99.90
9658;DHT22;4867;48.112;11.622;2023-09-07T00:47:48;14.60;99.90
9658;DHT22;4867;48.112;11.622;2023-09-07T00:50:16;14.60;99.90
9658;DHT22;4867;48.112;11.622;2023-09-07T00:52:44;14.50;99.90
9658;DHT22;4867;48.112;11.622;2023-09-07T00:55:12;14.60;99.90
9658;DHT22;4867;48.112;11.622;2023-09-07T00:57:40;14.50;99.90
9658;DHT22;4867;48.112;11.622;2023-09-07T01:00:10;14.50;99.90
9658;DHT22;4867;48.112;11.622;2023-09-07T01:02:37;14.50;99.90
9658;DHT22;4867;48.112;11.622;2023-09-07T01:05:05;14.50;99.90
9658;DHT22;4867;48.112;11.622;2023-09-07T01:07:42;14.40;99.90
9658;DHT22;4867;48.112;11.622;2023-09-07T01:10:10;14.50;99.90
9658;DHT22;4867;48.112;11.622;2023-09-07T01:12:38;14.40;99.90
9658;DHT22;4867;48.112;11.622;2023-09-07T01:15:06;14.40;99.90
9658;DHT22;4867;48.112;11.622;2023-09-07T01:17:34;14.30;99.90
9658;DHT22;4867;48.112;11.622;2023-09-07T01:20:05;14.40;99.90
9658;DHT22;4867;48.112;11.622;2023-09-07T01:22:37;14.30;99.90
9658;DHT22;4867;48.112;11.622;2023-09-07T01:25:06;14.30;99.90
9658;DHT22;4867;48.112;11.622;2023-09-07T01:27:34;14.30;99.90
9658;DHT22;4867;48.112;11.622;2023-09-07T01:30:02;14.30;99.90
9658;DHT22;4867;48.112;11.622;2023-09-07T01:32:30;14.30;99.90
9658;DHT22;4867;48.112;11.622;2023-09-07T01:34:58;14.20;99.90
9658;DHT22;4867;48.112;11.622;2023-09-07T01:37:26;14.20;99.90
9658;DHT22;4867;48.112;11.622;2023-09-07T01:39:53;14.20;99.90
9658;DHT22;4867;48.112;11.622;2023-09-07T01:42:21;14.20;99.90
9658;DHT22;4867;48.112;11.622;2023-09-07T01:44:49;14.10;99.90
9658;DHT22;4867;48.112;11.622;2023-09-07T01:47:16;14.10;99.90
9658;DHT22;4867;48.112;11.622;2023-09-07T01:49:44;14.10;99.90
9658;DHT22;4867;48.112;11.622;2023-09-07T01:52:11;14.00;99.90
9658;DHT22;4867;48.112;11.622;2023-09-07T01:54:38;14.00;99.90
9658;DHT22;4867;48.112;11.622;2023-09-07T01:57:05;14.00;99.90
9658;DHT22;4867;48.112;11.622;2023-09-07T01:59:33;13.90;99.90
9658;DHT22;4867;48.112;11.622;2023-09-07T02:02:00;13.90;99.90
9658;DHT22;4867;48.112;11.622;2023-09-07T02:04:28;13.90;99.90
9658;DHT22;4867;48.112;11.622;2023-09-07T02:06:55;13.90;99.90
9658;DHT22;4867;48.112;11.622;2023-09-07T02:09:22;13.90;99.90
9658;DHT22;4867;48.112;11.622;2023-09-07T02:11:49;13.90;99.90
9658;DHT22;4867;48.112;11.622;2023-09-07T02:14:17;13.80;99.90
9658;DHT22;4867;48.112;11.622;2023-09-07T02:16:45;13.80;99.90
9658;DHT22;4867;48.112;11.622;2023-09-07T02:19:12;13.80;99.90
9658;DHT22;4867;48.112;11.622;2023-09-07T02:21:40;13.80;99.90
9658;DHT22;4867;48.112;11.622;2023-09-07T02:24:08;13.80;99.90
9658;DHT22;4867;48.112;11.622;2023-09-07T02:26:35;13.70;99.90
9658;DHT22;4867;48.112;11.622;2023-09-07T02:29:03;13.80;99.90
9658;DHT22;4867;48.112;11.622;2023-09-07T02:31:33;13.70;99.90
9658;DHT22;4867;48.112;11.622;2023-09-07T02:34:01;13.70;99.90
9658;DHT22;4867;48.112;11.622;2023-09-07T02:36:29;13.70;99.90
9658;DHT22;4867;48.112;11.622;2023-09-07T02:38:57;13.70;99.90
9658;DHT22;4867;48.112;11.622;2023-09-07T02:41:24;13.60;99.90
9658;DHT22;4867;48.112;11.622;2023-09-07T02:43:51;13.60;99.90
9658;DHT22;4867;48.112;11.622;2023-09-07T02:46:18;13.50;99.90
9658;DHT22;4867;48.112;11.622;2023-09-07T02:48:46;13.50;99.90
9658;DHT22;4867;48.112;11.622;2023-09-07T02:51:13;13.40;99.90
9658;DHT22;4867;48.112;11.622;2023-09-07T02:53:41;13.40;99.90
9658;DHT22;4867;48.112;11.622;2023-09-07T02:56:08;13.40;99.90
9658;DHT22;4867;48.112;11.622;2023-09-07T02:58:39;13.30;99.90
9658;DHT22;4867;48.112;11.622;2023-09-07T03:01:07;13.30;99.90
9658;DHT22;4867;48.112;11.622;2023-09-07T03:03:38;13.30;99.90
9658;DHT22;4867;48.112;11.622;2023-09-07T03:06:13;13.20;99.90
9658;DHT22;4867;48.112;11.622;2023-09-07T03:08:43;13.20;99.90
9658;DHT22;4867;48.112;11.622;2023-09-07T03:11:11;13.30;99.90
9658;DHT22;4867;48.112;11.622;2023-09-07T03:13:39;13.20;99.90
9658;DHT22;4867;48.112;11.622;2023-09-07T03:16:07;13.20;99.90
9658;DHT22;4867;48.112;11.622;2023-09-07T03:18:34;13.20;99.90
9658;DHT22;4867;48.112;11.622;2023-09-07T03:21:02;13.20;99.90
9658;DHT22;4867;48.112;11.622;2023-09-07T03:23:31;13.10;99.90
9658;DHT22;4867;48.112;11.622;2023-09-07T03:26:00;13.10;99.90
9658;DHT22;4867;48.112;11.622;2023-09-07T03:28:27;13.00;99.90
9658;DHT22;4867;48.112;11.622;2023-09-07T03:30:55;13.00;99.90
9658;DHT22;4867;48.112;11.622;2023-09-07T03:33:23;13.00;99.90
9658;DHT22;4867;48.112;11.622;2023-09-07T03:35:50;12.90;99.90
9658;DHT22;4867;48.112;11.622;2023-09-07T03:38:18;12.80;99.90
9658;DHT22;4867;48.112;11.622;2023-09-07T03:40:46;12.90;99.90
9658;DHT22;4867;48.112;11.622;2023-09-07T03:43:14;12.80;99.90
9658;DHT22;4867;48.112;11.622;2023-09-07T03:45:41;12.80;99.90
9658;DHT22;4867;48.112;11.622;2023-09-07T03:48:09;12.80;99.90
9658;DHT22;4867;48.112;11.622;2023-09-07T03:50:37;12.80;99.90
9658;DHT22;4867;48.112;11.622;2023-09-07T03:53:04;12.90;99.90
9658;DHT22;4867;48.112;11.622;2023-09-07T03:55:40;12.80;99.90
9658;DHT22;4867;48.112;11.622;2023-09-07T03:58:11;12.80;99.90
9658;DHT22;4867;48.112;11.622;2023-09-07T04:00:40;12.90;99.90
9658;DHT22;4867;48.112;11.622;2023-09-07T04:03:08;12.70;99.90
9658;DHT22;4867;48.112;11.622;2023-09-07T04:05:37;12.80;99.90
9658;DHT22;4867;48.112;11.622;2023-09-07T04:08:06;12.70;99.90
9658;DHT22;4867;48.112;11.622;2023-09-07T04:10:37;12.70;99.90
9658;DHT22;4867;48.112;11.622;2023-09-07T04:13:05;12.70;99.90
9658;DHT22;4867;48.112;11.622;2023-09-07T04:15:44;12.60;99.90
9658;DHT22;4867;48.112;11.622;2023-09-07T04:18:13;12.60;99.90
9658;DHT22;4867;48.112;11.622;2023-09-07T04:20:43;12.50;99.90
9658;DHT22;4867;48.112;11.622;2023-09-07T04:23:12;12.50;99.90
9658;DHT22;4867;48.112;11.622;2023-09-07T04:25:39;12.40;99.90
9658;DHT22;4867;48.112;11.622;2023-09-07T04:28:07;12.40;99.90
9658;DHT22;4867;48.112;11.622;2023-09-07T04:30:39;12.50;99.90
9658;DHT22;4867;48.112;11.622;2023-09-07T04:33:06;12.50;99.90
9658;DHT22;4867;48.112;11.622;2023-09-07T04:35:36;12.40;99.90
9658;DHT22;4867;48.112;11.622;2023-09-07T04:38:03;12.40;99.90
9658;DHT22;4867;48.112;11.622;2023-09-07T04:40:31;12.40;99.90
9658;DHT22;4867;48.112;11.622;2023-09-07T04:42:59;12.40;99.90
9658;DHT22;4867;48.112;11.622;2023-09-07T04:45:26;12.40;99.90
9658;DHT22;4867;48.112;11.622;2023-09-07T04:47:54;12.40;99.90
9658;DHT22;4867;48.112;11.622;2023-09-07T04:50:21;12.40;99.90
9658;DHT22;4867;48.112;11.622;2023-09-07T04:52:48;12.40;99.90
9658;DHT22;4867;48.112;11.622;2023-09-07T04:55:16;12.30;99.90
9658;DHT22;4867;48.112;11.622;2023-09-07T04:57:44;12.40;99.90
9658;DHT22;4867;48.112;11.622;2023-09-07T05:00:11;12.40;99.90
9658;DHT22;4867;48.112;11.622;2023-09-07T05:02:39;12.50;99.90
9658;DHT22;4867;48.112;11.622;2023-09-07T05:05:10;12.50;99.90
9658;DHT22;4867;48.112;11.622;2023-09-07T05:07:37;12.50;99.90
9658;DHT22;4867;48.112;11.622;2023-09-07T05:10:05;12.60;99.90
9658;DHT22;4867;48.112;11.622;2023-09-07T05:12:34;12.60;99.90
9658;DHT22;4867;48.112;11.622;2023-09-07T05:15:01;12.60;99.90
9658;DHT22;4867;48.112;11.622;2023-09-07T05:17:29;12.70;99.90
9658;DHT22;4867;48.112;11.622;2023-09-07T05:19:56;12.70;99.90
9658;DHT22;4867;48.112;11.622;2023-09-07T05:22:23;12.70;99.90
9658;DHT22;4867;48.112;11.622;2023-09-07T05:24:53;12.80;99.90
9658;DHT22;4867;48.112;11.622;2023-09-07T05:27:20;12.80;99.90
9658;DHT22;4867;48.112;11.622;2023-09-07T05:29:48;12.80;99.90
9658;DHT22;4867;48.112;11.622;2023-09-07T05:32:15;12.90;99.90
9658;DHT22;4867;48.112;11.622;2023-09-07T05:34:43;13.00;99.90
9658;DHT22;4867;48.112;11.622;2023-09-07T05:37:10;13.00;99.90
9658;DHT22;4867;48.112;11.622;2023-09-07T05:39:38;13.10;99.90
9658;DHT22;4867;48.112;11.622;2023-09-07T05:42:05;13.20;99.90
9658;DHT22;4867;48.112;11.622;2023-09-07T05:44:33;13.20;99.90
9658;DHT22;4867;48.112;11.622;2023-09-07T05:47:01;13.30;99.90
9658;DHT22;4867;48.112;11.622;2023-09-07T05:49:30;13.40;99.90
9658;DHT22;4867;48.112;11.622;2023-09-07T05:51:57;13.50;99.90
9658;DHT22;4867;48.112;11.622;2023-09-07T05:54:25;13.50;99.90
9658;DHT22;4867;48.112;11.622;2023-09-07T05:56:53;13.60;99.90
9658;DHT22;4867;48.112;11.622;2023-09-07T05:59:20;13.70;99.90
9658;DHT22;4867;48.112;11.622;2023-09-07T06:01:47;13.70;99.90
9658;DHT22;4867;48.112;11.622;2023-09-07T06:04:15;13.90;99.90
9658;DHT22;4867;48.112;11.622;2023-09-07T06:06:42;14.00;99.90
9658;DHT22;4867;48.112;11.622;2023-09-07T06:09:10;14.10;99.90
9658;DHT22;4867;48.112;11.622;2023-09-07T06:11:38;14.20;99.90
9658;DHT22;4867;48.112;11.622;2023-09-07T06:14:06;14.30;99.90
9658;DHT22;4867;48.112;11.622;2023-09-07T06:16:34;14.40;99.90
9658;DHT22;4867;48.112;11.622;2023-09-07T06:19:02;14.50;99.90
9658;DHT22;4867;48.112;11.622;2023-09-07T06:21:29;14.60;99.90
9658;DHT22;4867;48.112;11.622;2023-09-07T06:23:57;14.70;99.90
9658;DHT22;4867;48.112;11.622;2023-09-07T06:26:24;14.70;99.90
9658;DHT22;4867;48.112;11.622;2023-09-07T06:28:52;14.80;99.90
9658;DHT22;4867;48.112;11.622;2023-09-07T06:31:19;14.90;99.90
9658;DHT22;4867;48.112;11.622;2023-09-07T06:33:47;15.00;99.90
9658;DHT22;4867;48.112;11.622;2023-09-07T06:36:14;15.10;99.90
9658;DHT22;4867;48.112;11.622;2023-09-07T06:38:42;15.20;99.90
9658;DHT22;4867;48.112;11.622;2023-09-07T06:41:09;15.40;99.90
9658;DHT22;4867;48.112;11.622;2023-09-07T06:43:38;15.50;99.90
9658;DHT22;4867;48.112;11.622;2023-09-07T06:46:09;15.70;99.90
9658;DHT22;4867;48.112;11.622;2023-09-07T06:48:37;15.90;99.90
9658;DHT22;4867;48.112;11.622;2023-09-07T06:51:06;15.90;99.90
9658;DHT22;4867;48.112;11.622;2023-09-07T06:53:34;16.10;99.90
9658;DHT22;4867;48.112;11.622;2023-09-07T06:56:22;16.10;99.90
9658;DHT22;4867;48.112;11.622;2023-09-07T06:58:49;16.30;99.90
9658;DHT22;4867;48.112;11.622;2023-09-07T07:01:16;16.40;99.90
9658;DHT22;4867;48.112;11.622;2023-09-07T07:03:44;16.60;99.90
9658;DHT22;4867;48.112;11.622;2023-09-07T07:06:12;16.60;99.90
9658;DHT22;4867;48.112;11.622;2023-09-07T07:08:39;16.70;99.90
9658;DHT22;4867;48.112;11.622;2023-09-07T07:11:07;16.80;99.90
9658;DHT22;4867;48.112;11.622;2023-09-07T07:13:35;16.80;99.90
9658;DHT22;4867;48.112;11.622;2023-09-07T07:16:04;17.00;99.90
9658;DHT22;4867;48.112;11.622;2023-09-07T07:18:32;17.00;99.90
9658;DHT22;4867;48.112;11.622;2023-09-07T07:20:59;17.10;99.90
9658;DHT22;4867;48.112;11.622;2023-09-07T07:23:27;17.20;99.90
9658;DHT22;4867;48.112;11.622;2023-09-07T07:25:54;17.40;99.90
9658;DHT22;4867;48.112;11.622;2023-09-07T07:28:24;17.40;99.90
9658;DHT22;4867;48.112;11.622;2023-09-07T07:30:51;17.50;99.90
9658;DHT22;4867;48.112;11.622;2023-09-07T07:33:21;17.50;99.90
9658;DHT22;4867;48.112;11.622;2023-09-07T07:35:51;17.70;99.90
9658;DHT22;4867;48.112;11.622;2023-09-07T07:38:19;17.80;99.90
9658;DHT22;4867;48.112;11.622;2023-09-07T07:40:47;18.00;99.90
9658;DHT22;4867;48.112;11.622;2023-09-07T07:43:15;18.00;99.90
9658;DHT22;4867;48.112;11.622;2023-09-07T07:45:43;18.00;99.90
9658;DHT22;4867;48.112;11.622;2023-09-07T07:48:11;18.10;99.90
9658;DHT22;4867;48.112;11.622;2023-09-07T07:50:40;18.20;99.90
9658;DHT22;4867;48.112;11.622;2023-09-07T07:53:11;18.30;99.90
9658;DHT22;4867;48.112;11.622;2023-09-07T07:55:40;18.40;99.90
9658;DHT22;4867;48.112;11.622;2023-09-07T07:58:11;18.50;99.90
9658;DHT22;4867;48.112;11.622;2023-09-07T08:00:40;18.60;99.90
9658;DHT22;4867;48.112;11.622;2023-09-07T08:03:19;18.70;99.90
9658;DHT22;4867;48.112;11.622;2023-09-07T08:05:47;18.80;99.90
9658;DHT22;4867;48.112;11.622;2023-09-07T08:08:15;18.90;99.90
9658;DHT22;4867;48.112;11.622;2023-09-07T08:10:45;19.10;99.90
9658;DHT22;4867;48.112;11.622;2023-09-07T08:13:13;19.10;99.90
9658;DHT22;4867;48.112;11.622;2023-09-07T08:15:41;19.20;99.90
9658;DHT22;4867;48.112;11.622;2023-09-07T08:18:10;19.30;99.90
9658;DHT22;4867;48.112;11.622;2023-09-07T08:20:38;19.40;99.90
9658;DHT22;4867;48.112;11.622;2023-09-07T08:23:07;19.60;99.90
9658;DHT22;4867;48.112;11.622;2023-09-07T08:25:38;19.70;99.90
9658;DHT22;4867;48.112;11.622;2023-09-07T08:28:06;19.80;99.90
9658;DHT22;4867;48.112;11.622;2023-09-07T08:30:35;19.90;99.90
9658;DHT22;4867;48.112;11.622;2023-09-07T08:33:02;20.00;99.90
9658;DHT22;4867;48.112;11.622;2023-09-07T08:35:32;20.10;99.90
9658;DHT22;4867;48.112;11.622;2023-09-07T08:38:02;20.20;99.90
9658;DHT22;4867;48.112;11.622;2023-09-07T08:40:32;20.30;99.90
9658;DHT22;4867;48.112;11.622;2023-09-07T08:43:04;20.30;99.90
9658;DHT22;4867;48.112;11.622;2023-09-07T08:45:31;20.40;99.90
9658;DHT22;4867;48.112;11.622;2023-09-07T08:48:05;20.50;99.90
9658;DHT22;4867;48.112;11.622;2023-09-07T08:50:33;20.50;99.90
9658;DHT22;4867;48.112;11.622;2023-09-07T08:53:00;20.60;99.90
9658;DHT22;4867;48.112;11.622;2023-09-07T08:55:31;20.70;99.90
9658;DHT22;4867;48.112;11.622;2023-09-07T08:57:58;20.70;99.90
9658;DHT22;4867;48.112;11.622;2023-09-07T09:00:25;20.80;99.90
9658;DHT22;4867;48.112;11.622;2023-09-07T09:02:52;21.00;99.90
9658;DHT22;4867;48.112;11.622;2023-09-07T09:05:23;21.10;99.90
9658;DHT22;4867;48.112;11.622;2023-09-07T09:08:01;21.20;99.90
9658;DHT22;4867;48.112;11.622;2023-09-07T09:10:29;21.30;99.90
9658;DHT22;4867;48.112;11.622;2023-09-07T09:12:57;21.40;99.90
9658;DHT22;4867;48.112;11.622;2023-09-07T09:15:26;21.40;99.90
9658;DHT22;4867;48.112;11.622;2023-09-07T09:17:54;21.50;99.90
9658;DHT22;4867;48.112;11.622;2023-09-07T09:20:25;21.60;99.90
9658;DHT22;4867;48.112;11.622;2023-09-07T09:22:56;21.60;99.90
9658;DHT22;4867;48.112;11.622;2023-09-07T09:25:23;21.70;99.90
9658;DHT22;4867;48.112;11.622;2023-09-07T09:27:50;21.80;99.90
9658;DHT22;4867;48.112;11.622;2023-09-07T09:30:18;21.90;99.90
9658;DHT22;4867;48.112;11.622;2023-09-07T09:32:46;21.90;99.90
9658;DHT22;4867;48.112;11.622;2023-09-07T09:35:18;22.00;99.90
9658;DHT22;4867;48.112;11.622;2023-09-07T09:37:47;22.10;99.90
9658;DHT22;4867;48.112;11.622;2023-09-07T09:40:15;22.10;99.90
9658;DHT22;4867;48.112;11.622;2023-09-07T09:42:44;22.10;99.90
9658;DHT22;4867;48.112;11.622;2023-09-07T09:45:12;22.10;99.90
9658;DHT22;4867;48.112;11.622;2023-09-07T09:47:41;22.20;99.90
9658;DHT22;4867;48.112;11.622;2023-09-07T09:50:10;22.30;99.90
9658;DHT22;4867;48.112;11.622;2023-09-07T09:52:38;22.30;99.90
9658;DHT22;4867;48.112;11.622;2023-09-07T09:55:07;22.40;99.90
9658;DHT22;4867;48.112;11.622;2023-09-07T09:57:35;22.50;99.90
9658;DHT22;4867;48.112;11.622;2023-09-07T10:00:04;22.60;99.90
9658;DHT22;4867;48.112;11.622;2023-09-07T10:02:51;22.70;99.90
9658;DHT22;4867;48.112;11.622;2023-09-07T10:05:22;22.80;99.90
9658;DHT22;4867;48.112;11.622;2023-09-07T10:07:59;22.80;99.90
9658;DHT22;4867;48.112;11.622;2023-09-07T10:10:33;22.80;99.90
9658;DHT22;4867;48.112;11.622;2023-09-07T10:13:01;22.80;99.90
9658;DHT22;4867;48.112;11.622;2023-09-07T10:15:28;22.90;99.90
9658;DHT22;4867;48.112;11.622;2023-09-07T10:18:15;22.90;99.90
9658;DHT22;4867;48.112;11.622;2023-09-07T10:20:54;23.00;99.90
9658;DHT22;4867;48.112;11.622;2023-09-07T10:23:22;23.00;99.90
9658;DHT22;4867;48.112;11.622;2023-09-07T10:25:52;23.20;99.90
9658;DHT22;4867;48.112;11.622;2023-09-07T10:28:24;23.30;99.90
9658;DHT22;4867;48.112;11.622;2023-09-07T10:33:26;23.50;99.90
9658;DHT22;4867;48.112;11.622;2023-09-07T10:35:54;23.50;99.90
9658;DHT22;4867;48.112;11.622;2023-09-07T10:38:21;23.50;99.90
9658;DHT22;4867;48.112;11.622;2023-09-07T10:40:55;23.50;99.90
9658;DHT22;4867;48.112;11.622;2023-09-07T10:43:32;23.60;99.90
9658;DHT22;4867;48.112;11.622;2023-09-07T10:46:00;23.70;99.90
9658;DHT22;4867;48.112;11.622;2023-09-07T10:48:31;23.80;99.90
9658;DHT22;4867;48.112;11.622;2023-09-07T10:51:00;23.90;99.90
9658;DHT22;4867;48.112;11.622;2023-09-07T10:53:29;23.90;99.90
9658;DHT22;4867;48.112;11.622;2023-09-07T10:56:04;24.00;99.90
9658;DHT22;4867;48.112;11.622;2023-09-07T10:58:36;24.10;99.90
9658;DHT22;4867;48.112;11.622;2023-09-07T11:01:09;24.10;99.90
9658;DHT22;4867;48.112;11.622;2023-09-07T11:03:38;24.20;99.90
9658;DHT22;4867;48.112;11.622;2023-09-07T11:06:11;24.20;99.90
9658;DHT22;4867;48.112;11.622;2023-09-07T11:08:39;24.20;99.90
9658;DHT22;4867;48.112;11.622;2023-09-07T11:11:07;24.30;99.90
9658;DHT22;4867;48.112;11.622;2023-09-07T11:13:35;24.30;99.90
9658;DHT22;4867;48.112;11.622;2023-09-07T11:16:03;24.40;99.90
9658;DHT22;4867;48.112;11.622;2023-09-07T11:18:34;24.60;99.90
9658;DHT22;4867;48.112;11.622;2023-09-07T11:21:03;24.60;99.90
9658;DHT22;4867;48.112;11.622;2023-09-07T11:23:34;24.60;99.90
9658;DHT22;4867;48.112;11.622;2023-09-07T11:26:06;24.60;99.90
9658;DHT22;4867;48.112;11.622;2023-09-07T11:28:34;24.60;99.90
9658;DHT22;4867;48.112;11.622;2023-09-07T11:31:02;24.80;99.90
9658;DHT22;4867;48.112;11.622;2023-09-07T11:33:33;24.80;99.90
9658;DHT22;4867;48.112;11.622;2023-09-07T11:36:03;24.90;99.90
9658;DHT22;4867;48.112;11.622;2023-09-07T11:38:35;24.90;99.90
9658;DHT22;4867;48.112;11.622;2023-09-07T11:41:03;25.00;99.90
9658;DHT22;4867;48.112;11.622;2023-09-07T11:43:31;25.00;99.90
9658;DHT22;4867;48.112;11.622;2023-09-07T11:45:58;25.00;99.90
9658;DHT22;4867;48.112;11.622;2023-09-07T11:48:28;25.00;99.90
9658;DHT22;4867;48.112;11.622;2023-09-07T11:50:56;25.10;99.90
9658;DHT22;4867;48.112;11.622;2023-09-07T11:53:23;25.10;99.90
9658;DHT22;4867;48.112;11.622;2023-09-07T11:55:51;25.20;99.90
9658;DHT22;4867;48.112;11.622;2023-09-07T11:58:18;25.20;99.90
9658;DHT22;4867;48.112;11.622;2023-09-07T12:00:45;25.30;99.90
9658;DHT22;4867;48.112;11.622;2023-09-07T12:03:12;25.20;99.90
9658;DHT22;4867;48.112;11.622;2023-09-07T12:05:40;25.30;99.90
9658;DHT22;4867;48.112;11.622;2023-09-07T12:08:09;25.40;99.90
9658;DHT22;4867;48.112;11.622;2023-09-07T12:10:39;25.40;99.90
9658;DHT22;4867;48.112;11.622;2023-09-07T12:13:07;25.30;99.90
9658;DHT22;4867;48.112;11.622;2023-09-07T12:15:34;25.40;99.90
9658;DHT22;4867;48.112;11.622;2023-09-07T12:18:02;25.50;99.90
9658;DHT22;4867;48.112;11.622;2023-09-07T12:20:30;25.50;99.90
9658;DHT22;4867;48.112;11.622;2023-09-07T12:22:57;25.50;99.90
9658;DHT22;4867;48.112;11.622;2023-09-07T12:25:24;25.50;99.90
9658;DHT22;4867;48.112;11.622;2023-09-07T12:27:52;25.50;99.90
9658;DHT22;4867;48.112;11.622;2023-09-07T12:30:21;25.50;99.90
9658;DHT22;4867;48.112;11.622;2023-09-07T12:32:51;25.60;99.90
9658;DHT22;4867;48.112;11.622;2023-09-07T12:35:18;25.70;99.90
9658;DHT22;4867;48.112;11.622;2023-09-07T12:37:47;25.80;99.90
9658;DHT22;4867;48.112;11.622;2023-09-07T12:40:14;25.70;99.90
9658;DHT22;4867;48.112;11.622;2023-09-07T12:42:45;25.70;99.90
9658;DHT22;4867;48.112;11.622;2023-09-07T12:45:13;25.70;99.90
9658;DHT22;4867;48.112;11.622;2023-09-07T12:47:42;25.70;99.90
9658;DHT22;4867;48.112;11.622;2023-09-07T12:50:09;25.80;99.90
9658;DHT22;4867;48.112;11.622;2023-09-07T12:52:36;25.80;99.90
9658;DHT22;4867;48.112;11.622;2023-09-07T12:55:06;25.90;99.90
9658;DHT22;4867;48.112;11.622;2023-09-07T12:57:34;25.90;99.90
9658;DHT22;4867;48.112;11.622;2023-09-07T13:00:04;26.00;99.90
9658;DHT22;4867;48.112;11.622;2023-09-07T13:02:33;25.90;99.90
9658;DHT22;4867;48.112;11.622;2023-09-07T13:05:00;25.90;99.90
9658;DHT22;4867;48.112;11.622;2023-09-07T13:07:27;25.90;99.90
9658;DHT22;4867;48.112;11.622;2023-09-07T13:09:55;26.00;99.90
9658;DHT22;4867;48.112;11.622;2023-09-07T13:12:22;26.00;99.90
9658;DHT22;4867;48.112;11.622;2023-09-07T13:14:49;26.10;99.90
9658;DHT22;4867;48.112;11.622;2023-09-07T13:17:17;26.10;99.90
9658;DHT22;4867;48.112;11.622;2023-09-07T13:19:45;26.20;99.90
9658;DHT22;4867;48.112;11.622;2023-09-07T13:22:12;26.20;99.90
9658;DHT22;4867;48.112;11.622;2023-09-07T13:24:40;26.20;99.90
9658;DHT22;4867;48.112;11.622;2023-09-07T13:27:07;26.20;99.90
9658;DHT22;4867;48.112;11.622;2023-09-07T13:29:36;26.20;99.90
9658;DHT22;4867;48.112;11.622;2023-09-07T13:32:03;26.20;99.90
9658;DHT22;4867;48.112;11.622;2023-09-07T13:34:31;26.20;99.90
9658;DHT22;4867;48.112;11.622;2023-09-07T13:36:58;26.10;99.90
9658;DHT22;4867;48.112;11.622;2023-09-07T13:39:25;26.20;99.90
9658;DHT22;4867;48.112;11.622;2023-09-07T13:41:52;26.10;99.90
9658;DHT22;4867;48.112;11.622;2023-09-07T13:44:20;26.10;99.90
9658;DHT22;4867;48.112;11.622;2023-09-07T13:46:47;26.10;99.90
9658;DHT22;4867;48.112;11.622;2023-09-07T13:49:14;26.10;99.90
9658;DHT22;4867;48.112;11.622;2023-09-07T13:51:42;26.10;99.90
9658;DHT22;4867;48.112;11.622;2023-09-07T13:54:09;26.20;99.90
9658;DHT22;4867;48.112;11.622;2023-09-07T13:56:36;26.10;99.90
9658;DHT22;4867;48.112;11.622;2023-09-07T13:59:04;26.10;99.90
9658;DHT22;4867;48.112;11.622;2023-09-07T14:01:32;26.10;99.90
9658;DHT22;4867;48.112;11.622;2023-09-07T14:04:00;26.10;99.90
9658;DHT22;4867;48.112;11.622;2023-09-07T14:06:27;26.10;99.90
9658;DHT22;4867;48.112;11.622;2023-09-07T14:08:54;26.10;99.90
9658;DHT22;4867;48.112;11.622;2023-09-07T14:11:21;26.20;99.90
9658;DHT22;4867;48.112;11.622;2023-09-07T14:13:51;26.10;99.90
9658;DHT22;4867;48.112;11.622;2023-09-07T14:16:19;26.10;99.90
9658;DHT22;4867;48.112;11.622;2023-09-07T14:18:47;26.10;99.90
9658;DHT22;4867;48.112;11.622;2023-09-07T14:21:15;26.10;99.90
9658;DHT22;4867;48.112;11.622;2023-09-07T14:23:43;26.10;99.90
9658;DHT22;4867;48.112;11.622;2023-09-07T14:26:11;26.10;99.90
9658;DHT22;4867;48.112;11.622;2023-09-07T14:28:38;26.00;99.90
9658;DHT22;4867;48.112;11.622;2023-09-07T14:31:07;26.00;99.90
9658;DHT22;4867;48.112;11.622;2023-09-07T14:33:35;26.00;99.90
9658;DHT22;4867;48.112;11.622;2023-09-07T14:36:06;26.10;99.90
9658;DHT22;4867;48.112;11.622;2023-09-07T14:38:37;26.00;99.90
9658;DHT22;4867;48.112;11.622;2023-09-07T14:41:09;26.10;99.90
9658;DHT22;4867;48.112;11.622;2023-09-07T14:43:46;26.00;99.90
9658;DHT22;4867;48.112;11.622;2023-09-07T14:46:14;26.10;99.90
9658;DHT22;4867;48.112;11.622;2023-09-07T14:48:43;26.00;99.90
9658;DHT22;4867;48.112;11.622;2023-09-07T14:51:10;26.00;99.90
9658;DHT22;4867;48.112;11.622;2023-09-07T14:53:37;26.00;99.90
9658;DHT22;4867;48.112;11.622;2023-09-07T14:56:05;26.00;99.90
9658;DHT22;4867;48.112;11.622;2023-09-07T14:58:33;25.90;99.90
9658;DHT22;4867;48.112;11.622;2023-09-07T15:01:00;25.90;99.90
9658;DHT22;4867;48.112;11.622;2023-09-07T15:03:28;25.90;99.90
9658;DHT22;4867;48.112;11.622;2023-09-07T15:05:56;26.00;99.90
9658;DHT22;4867;48.112;11.622;2023-09-07T15:08:23;25.90;99.90
9658;DHT22;4867;48.112;11.622;2023-09-07T15:10:51;26.00;99.90
9658;DHT22;4867;48.112;11.622;2023-09-07T15:13:18;26.00;99.90
9658;DHT22;4867;48.112;11.622;2023-09-07T15:15:47;26.00;99.90
9658;DHT22;4867;48.112;11.622;2023-09-07T15:18:14;26.00;99.90
9658;DHT22;4867;48.112;11.622;2023-09-07T15:20:41;26.00;99.90
9658;DHT22;4867;48.112;11.622;2023-09-07T15:23:09;26.00;99.90
9658;DHT22;4867;48.112;11.622;2023-09-07T15:25:36;26.00;99.90
9658;DHT22;4867;48.112;11.622;2023-09-07T15:28:03;26.00;99.90
9658;DHT22;4867;48.112;11.622;2023-09-07T15:30:35;26.00;99.90
9658;DHT22;4867;48.112;11.622;2023-09-07T15:33:03;25.90;99.90
9658;DHT22;4867;48.112;11.622;2023-09-07T15:35:30;25.80;99.90
9658;DHT22;4867;48.112;11.622;2023-09-07T15:37:58;25.80;99.90
9658;DHT22;4867;48.112;11.622;2023-09-07T15:40:25;25.80;99.90
9658;DHT22;4867;48.112;11.622;2023-09-07T15:42:54;25.80;99.90
9658;DHT22;4867;48.112;11.622;2023-09-07T15:45:21;25.80;99.90
9658;DHT22;4867;48.112;11.622;2023-09-07T15:47:49;25.80;99.90
9658;DHT22;4867;48.112;11.622;2023-09-07T15:50:16;25.70;99.90
9658;DHT22;4867;48.112;11.622;2023-09-07T15:52:47;25.70;99.90
9658;DHT22;4867;48.112;11.622;2023-09-07T15:55:16;25.60;99.90